NY28 weather

Anthonson Airport
Jordan, New York, United States

Public forecast

Using degrees Fahrenheit for public forecast. Weather courtesy of forecast.io.

Closest aviation weather report (METAR) to Anthonson Airport

Closest report is Syracuse Hancock International Airport, 13.4 nm (24.9 km) E. Retrieved 2019/10/19 10:54 UTC (59 minutes ago):

KSYR 191054Z 00000KT 10SM FEW150 SCT250 03/03 A3007 RMK AO2 SLP183 T00330028

Closest aviation forecast (TAF) to Anthonson Airport

Closest forecast is Syracuse Hancock International Airport, 13.4 nm (24.9 km) E. Retrieved 2019/10/19 06:22 UTC (6 hours ago):

TAF KSYR 190520Z 1906/2006 25003KT P6SM OVC040 FM190900 13003KT P6SM SCT250